createdAt,value
2022-11-18T00:01:56.635Z,19.00
2022-11-18T00:04:26.944Z,19.10
2022-11-18T00:06:57.521Z,18.90
2022-11-18T00:09:30.311Z,18.90
2022-11-18T00:12:19.303Z,19.00
2022-11-18T00:15:01.312Z,19.10
2022-11-18T00:17:32.326Z,19.20
2022-11-18T00:20:03.603Z,19.30
2022-11-18T00:22:34.531Z,19.20
2022-11-18T00:25:05.114Z,19.30
2022-11-18T00:27:35.406Z,19.40
2022-11-18T00:30:06.806Z,19.60
2022-11-18T00:32:38.197Z,19.70
2022-11-18T00:35:09.537Z,19.80
2022-11-18T00:37:40.836Z,19.90
2022-11-18T00:40:12.053Z,20.10
2022-11-18T00:42:56.402Z,20.20
2022-11-18T00:45:27.197Z,20.20
2022-11-18T00:47:57.475Z,20.40
2022-11-18T00:50:28.107Z,20.50
2022-11-18T00:52:58.747Z,20.30
2022-11-18T00:55:29.149Z,20.40
2022-11-18T00:57:59.717Z,20.50
2022-11-18T01:00:30.825Z,20.50
2022-11-18T01:03:02.108Z,20.60
2022-11-18T01:05:33.332Z,20.70
2022-11-18T01:08:03.941Z,20.90
2022-11-18T01:10:34.222Z,20.90
2022-11-18T01:13:24.571Z,21.00
2022-11-18T01:16:00.157Z,21.10
2022-11-18T01:18:33.350Z,21.30
2022-11-18T01:21:05.792Z,21.40
2022-11-18T01:23:36.463Z,21.60
2022-11-18T01:26:12.627Z,21.60
2022-11-18T01:28:43.399Z,21.70
2022-11-18T01:31:20.332Z,21.80
2022-11-18T01:33:50.653Z,21.80
2022-11-18T01:36:30.525Z,21.80
2022-11-18T01:39:00.824Z,21.90
2022-11-18T01:41:31.078Z,22.00
2022-11-18T01:44:06.010Z,22.00
2022-11-18T01:46:37.492Z,22.00
2022-11-18T01:49:17.134Z,21.80
2022-11-18T01:51:58.787Z,21.70
2022-11-18T01:54:38.001Z,21.70
2022-11-18T01:57:15.101Z,21.80
2022-11-18T01:59:48.416Z,22.00
2022-11-18T02:02:20.530Z,21.90
2022-11-18T02:04:54.215Z,21.80
2022-11-18T02:07:26.210Z,21.90
2022-11-18T02:09:58.311Z,22.10
2022-11-18T02:12:28.694Z,22.10
2022-11-18T02:14:59.203Z,22.10
2022-11-18T02:17:48.304Z,22.00
2022-11-18T02:20:53.439Z,22.00
2022-11-18T02:23:53.592Z,22.00
2022-11-18T02:26:59.120Z,22.10
2022-11-18T02:29:44.432Z,22.20
2022-11-18T02:32:26.792Z,22.10
2022-11-18T02:35:08.461Z,22.00
2022-11-18T02:37:52.390Z,21.90
2022-11-18T02:40:30.819Z,21.90
2022-11-18T02:43:16.008Z,21.90
2022-11-18T02:45:52.923Z,21.70
2022-11-18T02:48:28.157Z,21.60
2022-11-18T02:51:00.345Z,21.70
2022-11-18T02:53:33.420Z,21.80
2022-11-18T02:56:05.418Z,21.90
2022-11-18T02:58:36.308Z,22.00
2022-11-18T03:01:08.948Z,22.00
2022-11-18T03:03:46.488Z,21.90
2022-11-18T03:06:27.311Z,22.00
2022-11-18T03:09:40.092Z,21.80
2022-11-18T03:12:16.417Z,21.70
2022-11-18T03:15:11.019Z,21.70
2022-11-18T03:18:11.444Z,21.80
2022-11-18T03:20:50.488Z,22.00
2022-11-18T03:23:28.877Z,22.10
2022-11-18T03:26:07.599Z,22.20
2022-11-18T03:28:52.816Z,22.40
2022-11-18T03:31:39.438Z,22.40
2022-11-18T03:34:15.413Z,22.30
2022-11-18T03:36:57.166Z,22.10
2022-11-18T03:39:35.707Z,22.10
2022-11-18T03:42:39.610Z,22.20
2022-11-18T03:45:35.004Z,22.10
2022-11-18T03:48:19.766Z,22.00
2022-11-18T03:51:09.754Z,22.00
2022-11-18T03:53:48.317Z,22.00
2022-11-18T03:56:27.711Z,22.00
2022-11-18T03:59:12.693Z,21.80
2022-11-18T04:01:50.884Z,21.80
2022-11-18T04:04:22.282Z,21.90
2022-11-18T04:07:15.082Z,22.00
2022-11-18T04:10:10.767Z,22.00
2022-11-18T04:13:06.227Z,21.80
2022-11-18T04:15:41.013Z,21.60
2022-11-18T04:18:12.445Z,21.50
2022-11-18T04:20:43.541Z,21.40
2022-11-18T04:23:15.014Z,21.20
2022-11-18T04:25:46.126Z,21.10
2022-11-18T04:28:16.752Z,21.00
2022-11-18T04:30:48.248Z,20.90
2022-11-18T04:33:20.047Z,20.80
2022-11-18T04:35:53.346Z,20.80
2022-11-18T04:38:28.922Z,20.70
2022-11-18T04:41:00.581Z,20.70
2022-11-18T04:43:33.053Z,20.70
2022-11-18T04:46:04.254Z,20.80
2022-11-18T04:48:34.619Z,20.80
2022-11-18T04:51:09.105Z,20.80
2022-11-18T04:53:39.799Z,21.00
2022-11-18T04:56:10.852Z,20.90
2022-11-18T04:58:44.343Z,20.90
2022-11-18T05:01:15.974Z,20.90
2022-11-18T05:03:50.857Z,20.90
2022-11-18T05:06:26.932Z,20.90
2022-11-18T05:09:03.234Z,20.80
2022-11-18T05:11:57.764Z,20.70
2022-11-18T05:14:35.468Z,20.70
2022-11-18T05:17:08.510Z,20.60
2022-11-18T05:19:44.642Z,20.50
2022-11-18T05:22:18.775Z,20.40
2022-11-18T05:24:49.940Z,20.40
2022-11-18T05:27:22.521Z,20.30
2022-11-18T05:29:54.894Z,20.40
2022-11-18T05:32:26.710Z,20.60
2022-11-18T05:35:00.855Z,20.70
2022-11-18T05:37:37.172Z,20.80
2022-11-18T05:40:12.430Z,20.90
2022-11-18T05:43:01.902Z,20.80
2022-11-18T05:45:33.960Z,20.70
2022-11-18T05:48:06.665Z,20.70
2022-11-18T05:50:40.792Z,20.50
2022-11-18T05:53:12.964Z,20.40
2022-11-18T05:56:07.403Z,20.30
2022-11-18T05:58:38.368Z,20.20
2022-11-18T06:01:09.891Z,20.10
2022-11-18T06:03:44.450Z,20.00
2022-11-18T06:06:19.272Z,19.80
2022-11-18T06:09:05.585Z,19.80
2022-11-18T06:11:44.058Z,19.70
2022-11-18T06:14:20.196Z,19.60
2022-11-18T06:16:56.560Z,19.50
2022-11-18T06:19:28.599Z,19.50
2022-11-18T06:21:59.434Z,19.40
2022-11-18T06:24:30.490Z,19.40
2022-11-18T06:27:02.595Z,19.40
2022-11-18T06:29:35.158Z,19.40
2022-11-18T06:32:07.346Z,19.40
2022-11-18T06:34:41.488Z,19.40
2022-11-18T06:37:22.755Z,19.50
2022-11-18T06:39:53.726Z,19.50
2022-11-18T06:42:42.234Z,19.50
2022-11-18T06:45:13.694Z,19.50
2022-11-18T06:47:46.440Z,19.50
2022-11-18T06:50:17.527Z,19.50
2022-11-18T06:52:48.506Z,19.60
2022-11-18T06:55:20.633Z,19.60
2022-11-18T06:57:51.453Z,19.70
2022-11-18T07:00:22.796Z,19.70
2022-11-18T07:02:53.779Z,19.80
2022-11-18T07:05:25.283Z,19.80
2022-11-18T07:07:56.916Z,19.80
2022-11-18T07:10:29.274Z,19.90
2022-11-18T07:13:00.013Z,19.90
2022-11-18T07:15:30.656Z,19.90
2022-11-18T07:18:01.656Z,20.00
2022-11-18T07:20:33.244Z,20.00
2022-11-18T07:23:04.017Z,20.00
2022-11-18T07:25:34.935Z,20.00
2022-11-18T07:28:05.544Z,20.00
2022-11-18T07:30:36.165Z,19.90
2022-11-18T07:33:06.775Z,19.90
2022-11-18T07:35:37.974Z,19.80
2022-11-18T07:38:08.916Z,19.80
2022-11-18T07:40:40.030Z,19.70
2022-11-18T07:43:10.707Z,19.70
2022-11-18T07:45:41.686Z,19.60
2022-11-18T07:48:12.289Z,19.60
2022-11-18T07:50:47.057Z,19.60
2022-11-18T07:53:18.324Z,19.60
2022-11-18T07:55:50.752Z,19.50
2022-11-18T07:58:23.333Z,19.50
2022-11-18T08:00:54.515Z,19.50
2022-11-18T08:03:30.088Z,19.40
2022-11-18T08:06:05.057Z,19.30
2022-11-18T08:08:36.176Z,19.20
2022-11-18T08:11:12.004Z,19.20
2022-11-18T08:13:43.046Z,19.10
2022-11-18T08:16:28.473Z,19.10
2022-11-18T08:19:01.114Z,19.10
2022-11-18T08:21:32.152Z,19.00
2022-11-18T08:24:04.388Z,18.90
2022-11-18T08:26:35.807Z,18.90
2022-11-18T08:29:06.767Z,18.80
2022-11-18T08:31:39.036Z,18.70
2022-11-18T08:34:10.856Z,18.60
2022-11-18T08:36:43.481Z,18.60
2022-11-18T08:39:15.390Z,18.50
2022-11-18T08:41:49.255Z,18.40
2022-11-18T08:44:20.610Z,18.40
2022-11-18T08:46:51.777Z,18.30
2022-11-18T08:49:25.114Z,18.20
2022-11-18T08:52:10.777Z,18.10
2022-11-18T08:54:45.297Z,18.00
2022-11-18T08:57:17.047Z,17.90
2022-11-18T08:59:50.223Z,17.90
2022-11-18T09:02:24.628Z,17.80
2022-11-18T09:04:57.416Z,17.80
2022-11-18T09:07:30.408Z,17.70
2022-11-18T09:10:02.491Z,17.70
2022-11-18T09:12:33.300Z,17.60
2022-11-18T09:15:19.950Z,17.50
2022-11-18T09:17:51.042Z,17.40
2022-11-18T09:20:22.420Z,17.40
2022-11-18T09:22:54.470Z,17.30
2022-11-18T09:25:25.178Z,17.20
2022-11-18T09:27:57.622Z,17.10
2022-11-18T09:30:29.936Z,16.80
2022-11-18T09:33:04.322Z,16.60
2022-11-18T09:35:37.508Z,16.60
2022-11-18T09:38:08.562Z,16.50
2022-11-18T09:40:48.385Z,16.40
2022-11-18T09:43:45.941Z,16.30
2022-11-18T09:46:57.936Z,16.20
2022-11-18T09:49:46.503Z,16.20
2022-11-18T09:52:53.406Z,16.20
2022-11-18T09:55:25.703Z,16.20
2022-11-18T09:58:00.622Z,16.10
2022-11-18T10:00:33.098Z,16.10
2022-11-18T10:03:35.244Z,16.10
2022-11-18T10:06:09.420Z,16.10
2022-11-18T10:08:43.152Z,16.10
2022-11-18T10:11:16.821Z,16.10
2022-11-18T10:14:12.034Z,16.20
2022-11-18T10:17:04.896Z,16.10
2022-11-18T10:20:17.946Z,16.10
2022-11-18T10:23:06.424Z,16.00
2022-11-18T10:25:37.792Z,15.90
2022-11-18T10:28:25.959Z,15.90
2022-11-18T10:30:56.987Z,15.80
2022-11-18T10:33:29.365Z,15.80
2022-11-18T10:36:19.565Z,15.80
2022-11-18T10:38:50.416Z,15.80
2022-11-18T10:41:23.311Z,15.80
2022-11-18T10:43:56.482Z,15.80
2022-11-18T10:46:32.576Z,15.70
2022-11-18T10:49:14.739Z,15.70
2022-11-18T10:52:11.005Z,15.70
2022-11-18T10:54:42.519Z,15.70
2022-11-18T10:57:24.450Z,15.60
2022-11-18T10:59:59.162Z,15.60
2022-11-18T11:02:35.939Z,15.60
2022-11-18T11:05:28.683Z,15.60
2022-11-18T11:08:34.468Z,15.50
2022-11-18T11:11:02.887Z,15.50
2022-11-18T11:13:35.381Z,15.50
2022-11-18T11:16:08.806Z,15.40
2022-11-18T11:18:46.480Z,15.40
2022-11-18T11:21:21.793Z,15.30
2022-11-18T11:23:54.521Z,15.30
2022-11-18T11:30:14.099Z,15.10
2022-11-18T11:33:08.224Z,15.10
2022-11-18T11:36:08.037Z,15.00
2022-11-18T11:39:04.840Z,14.90
2022-11-18T11:41:59.297Z,14.80
2022-11-18T11:44:40.618Z,14.80
2022-11-18T11:47:29.903Z,14.70
2022-11-18T11:50:22.461Z,14.70
2022-11-18T11:53:20.443Z,14.60
2022-11-18T11:55:57.017Z,14.50
2022-11-18T11:59:04.499Z,14.50
2022-11-18T12:01:52.060Z,14.40
2022-11-18T12:04:32.631Z,14.20
2022-11-18T12:07:06.208Z,14.20
2022-11-18T12:09:46.449Z,14.10
2022-11-18T12:12:50.731Z,14.10
2022-11-18T12:15:34.016Z,14.10
2022-11-18T12:18:33.089Z,14.10
2022-11-18T12:21:03.855Z,14.10
2022-11-18T12:23:37.440Z,14.10
2022-11-18T12:26:14.814Z,14.10
2022-11-18T12:28:47.867Z,14.00
2022-11-18T12:31:21.857Z,14.00
2022-11-18T12:34:04.924Z,13.90
2022-11-18T12:36:44.492Z,13.90
2022-11-18T12:39:34.957Z,13.80
2022-11-18T12:42:27.739Z,13.70
2022-11-18T12:45:08.728Z,13.60
2022-11-18T12:47:45.798Z,13.60
2022-11-18T12:50:19.254Z,13.40
2022-11-18T12:52:51.416Z,13.40
2022-11-18T12:55:29.617Z,13.30
2022-11-18T12:58:01.225Z,13.20
2022-11-18T13:00:34.622Z,13.20
2022-11-18T13:03:05.824Z,13.10
2022-11-18T13:05:37.949Z,13.00
2022-11-18T13:08:18.828Z,13.10
2022-11-18T13:10:56.083Z,13.00
2022-11-18T13:13:38.311Z,13.00
2022-11-18T13:16:42.901Z,13.00
2022-11-18T13:19:25.665Z,12.90
2022-11-18T13:22:19.943Z,12.80
2022-11-18T13:24:56.052Z,12.80
2022-11-18T13:27:51.089Z,12.80
2022-11-18T13:30:23.202Z,12.70
2022-11-18T13:32:57.333Z,12.70
2022-11-18T13:35:33.099Z,12.70
2022-11-18T13:38:04.989Z,12.70
2022-11-18T13:41:08.336Z,12.60
2022-11-18T13:43:39.541Z,12.60
2022-11-18T13:46:25.137Z,12.60
2022-11-18T13:49:01.179Z,12.60
2022-11-18T13:51:32.396Z,12.50
2022-11-18T13:54:03.193Z,12.40
2022-11-18T13:56:35.597Z,12.50
2022-11-18T13:59:17.494Z,12.40
2022-11-18T14:01:50.328Z,12.40
2022-11-18T14:04:30.799Z,12.40
2022-11-18T14:07:41.048Z,12.30
2022-11-18T14:10:15.527Z,12.30
2022-11-18T14:12:46.614Z,12.30
2022-11-18T14:15:17.785Z,12.30
2022-11-18T14:18:00.436Z,12.30
2022-11-18T14:20:33.789Z,12.30
2022-11-18T14:23:09.441Z,12.30
2022-11-18T14:25:40.681Z,12.30
2022-11-18T14:28:23.305Z,12.40
2022-11-18T14:31:03.071Z,12.40
2022-11-18T14:33:36.727Z,12.50
2022-11-18T14:36:15.115Z,12.50
2022-11-18T14:39:11.818Z,12.60
2022-11-18T14:41:52.286Z,12.60
2022-11-18T14:44:24.918Z,12.60
2022-11-18T14:47:06.239Z,12.60
2022-11-18T14:49:39.849Z,12.70
2022-11-18T14:52:14.408Z,12.70
2022-11-18T14:54:45.908Z,12.70
2022-11-18T14:57:21.276Z,12.80
2022-11-18T14:59:52.003Z,12.80
2022-11-18T15:02:24.172Z,12.80
2022-11-18T15:04:54.703Z,12.80
2022-11-18T15:07:25.566Z,12.90
2022-11-18T15:10:04.074Z,12.90
2022-11-18T15:12:36.742Z,12.90
2022-11-18T15:15:08.762Z,13.00
2022-11-18T15:17:39.472Z,13.00
2022-11-18T15:20:16.944Z,13.00
2022-11-18T15:22:47.795Z,13.00
2022-11-18T15:25:19.004Z,13.00
2022-11-18T15:27:50.121Z,13.10
2022-11-18T15:30:21.037Z,13.10
2022-11-18T15:32:55.259Z,13.10
2022-11-18T15:35:29.095Z,13.10
2022-11-18T15:37:59.776Z,13.10
2022-11-18T15:40:32.890Z,13.10
2022-11-18T15:43:03.523Z,13.10
2022-11-18T15:45:35.485Z,13.10
2022-11-18T15:48:07.841Z,13.10
2022-11-18T15:50:38.575Z,13.20
2022-11-18T15:53:09.284Z,13.10
2022-11-18T15:55:41.862Z,13.10
2022-11-18T15:58:17.192Z,13.00
2022-11-18T16:00:49.272Z,13.10
2022-11-18T16:03:19.616Z,13.00
2022-11-18T16:05:50.839Z,13.00
2022-11-18T16:08:28.166Z,13.00
2022-11-18T16:11:17.861Z,13.00
2022-11-18T16:13:49.361Z,13.00
2022-11-18T16:16:31.723Z,13.00
2022-11-18T16:19:04.898Z,13.00
2022-11-18T16:21:38.135Z,13.00
2022-11-18T16:24:10.767Z,13.00
2022-11-18T16:26:41.212Z,13.00
2022-11-18T16:29:14.633Z,13.00
2022-11-18T16:31:53.180Z,13.10
2022-11-18T16:34:26.238Z,13.00
2022-11-18T16:36:58.916Z,13.00
2022-11-18T16:39:31.099Z,13.00
2022-11-18T16:42:08.637Z,13.00
2022-11-18T16:44:40.025Z,13.00
2022-11-18T16:47:14.655Z,13.00
2022-11-18T16:49:46.003Z,12.90
2022-11-18T16:52:16.251Z,12.90
2022-11-18T16:54:46.684Z,12.90
2022-11-18T16:57:17.336Z,12.90
2022-11-18T16:59:47.816Z,12.80
2022-11-18T17:02:18.143Z,12.80
2022-11-18T17:04:48.445Z,12.80
2022-11-18T17:07:21.632Z,12.70
2022-11-18T17:09:53.081Z,12.70
2022-11-18T17:12:23.364Z,12.60
2022-11-18T17:14:53.539Z,12.60
2022-11-18T17:17:23.789Z,12.60
2022-11-18T17:19:54.085Z,12.60
2022-11-18T17:22:24.339Z,12.50
2022-11-18T17:24:54.619Z,12.50
2022-11-18T17:27:25.103Z,12.50
2022-11-18T17:29:55.619Z,12.50
2022-11-18T17:32:26.074Z,12.50
2022-11-18T17:34:56.562Z,12.40
2022-11-18T17:37:27.069Z,12.40
2022-11-18T17:39:57.536Z,12.40
2022-11-18T17:42:27.905Z,12.40
2022-11-18T17:44:58.305Z,12.40
2022-11-18T17:47:29.002Z,12.30
2022-11-18T17:49:59.281Z,12.30
2022-11-18T17:52:29.540Z,12.20
2022-11-18T17:55:00.000Z,12.20
2022-11-18T17:57:30.310Z,12.10
2022-11-18T18:00:00.660Z,12.10
2022-11-18T18:02:30.904Z,12.10
2022-11-18T18:05:01.248Z,12.10
2022-11-18T18:07:33.358Z,12.00
2022-11-18T18:10:03.792Z,12.00
2022-11-18T18:12:51.899Z,12.00
2022-11-18T18:15:22.653Z,12.00
2022-11-18T18:17:53.238Z,11.90
2022-11-18T18:20:24.154Z,11.90
2022-11-18T18:22:56.125Z,11.80
2022-11-18T18:25:27.601Z,11.80
2022-11-18T18:27:58.474Z,11.80
2022-11-18T18:30:28.804Z,11.70
2022-11-18T18:33:01.389Z,11.70
2022-11-18T18:35:33.249Z,11.70
2022-11-18T18:38:03.931Z,11.70
2022-11-18T18:40:36.515Z,11.70
2022-11-18T18:43:06.766Z,11.70
2022-11-18T18:45:55.303Z,11.70
2022-11-18T18:48:26.037Z,11.70
2022-11-18T18:50:57.950Z,11.60
2022-11-18T18:53:29.057Z,11.70
2022-11-18T18:56:00.879Z,11.60
2022-11-18T18:58:31.864Z,11.60
2022-11-18T19:01:18.635Z,11.60
2022-11-18T19:03:50.544Z,11.50
2022-11-18T19:06:50.560Z,11.60
2022-11-18T19:09:19.716Z,11.50
2022-11-18T19:12:08.738Z,11.50
2022-11-18T19:14:39.337Z,11.50
2022-11-18T19:17:11.718Z,11.40
2022-11-18T19:20:02.474Z,11.40
2022-11-18T19:22:35.130Z,11.40
2022-11-18T19:25:05.937Z,11.40
2022-11-18T19:27:40.495Z,11.40
2022-11-18T19:30:12.192Z,11.40
2022-11-18T19:32:44.904Z,11.40
2022-11-18T19:35:15.683Z,11.40
2022-11-18T19:37:45.967Z,11.50
2022-11-18T19:40:17.800Z,11.60
2022-11-18T19:42:49.394Z,11.60
2022-11-18T19:45:21.077Z,11.70
2022-11-18T19:47:51.364Z,11.90
2022-11-18T19:50:21.736Z,12.00
2022-11-18T19:52:52.087Z,12.10
2022-11-18T19:55:22.393Z,12.20
2022-11-18T19:57:53.067Z,12.40
2022-11-18T20:00:23.452Z,12.50
2022-11-18T20:02:55.304Z,12.60
2022-11-18T20:05:47.119Z,12.70
2022-11-18T20:08:17.963Z,12.70
2022-11-18T20:10:48.249Z,12.80
2022-11-18T20:13:20.158Z,12.90
2022-11-18T20:15:53.031Z,12.90
2022-11-18T20:18:25.088Z,12.90
2022-11-18T20:20:58.019Z,13.00
2022-11-18T20:23:28.270Z,13.10
2022-11-18T20:25:58.555Z,13.20
2022-11-18T20:28:28.776Z,13.20
2022-11-18T20:31:01.552Z,13.30
2022-11-18T20:33:33.970Z,13.40
2022-11-18T20:36:16.324Z,13.40
2022-11-18T20:38:50.101Z,13.50
2022-11-18T20:41:21.234Z,13.50
2022-11-18T20:43:51.849Z,13.50
2022-11-18T20:46:23.862Z,13.50
2022-11-18T20:48:55.430Z,13.50
2022-11-18T20:51:28.004Z,13.50
2022-11-18T20:54:00.211Z,13.50
2022-11-18T20:56:31.169Z,13.60
2022-11-18T20:59:01.835Z,13.60
2022-11-18T21:01:34.615Z,13.60
2022-11-18T21:04:06.452Z,13.60
2022-11-18T21:06:37.968Z,13.70
2022-11-18T21:09:10.344Z,13.70
2022-11-18T21:11:41.222Z,13.80
2022-11-18T21:14:25.068Z,13.80
2022-11-18T21:17:03.474Z,13.90
2022-11-18T21:19:35.993Z,14.00
2022-11-18T21:22:07.657Z,14.00
2022-11-18T21:24:40.328Z,14.00
2022-11-18T21:27:11.133Z,14.10
2022-11-18T21:29:43.463Z,14.10
2022-11-18T21:32:13.753Z,14.20
2022-11-18T21:34:44.139Z,14.20
2022-11-18T21:37:14.449Z,14.30
2022-11-18T21:41:09.872Z,14.40
2022-11-18T21:43:10.198Z,14.40
2022-11-18T21:45:40.654Z,14.40
2022-11-18T21:48:11.175Z,14.50
2022-11-18T21:50:41.609Z,14.50
2022-11-18T21:53:12.005Z,14.50
2022-11-18T21:55:42.538Z,14.50
2022-11-18T21:58:13.698Z,14.60
2022-11-18T22:00:44.056Z,14.60
2022-11-18T22:03:14.553Z,14.60
2022-11-18T22:05:44.812Z,14.60
2022-11-18T22:08:15.320Z,14.70
2022-11-18T22:10:51.289Z,14.80
2022-11-18T22:13:21.491Z,14.90
2022-11-18T22:16:00.449Z,15.00
2022-11-18T22:18:35.393Z,15.20
2022-11-18T22:21:12.664Z,15.50
2022-11-18T22:23:44.413Z,15.80
2022-11-18T22:26:17.335Z,16.20
2022-11-18T22:28:48.416Z,16.60
2022-11-18T22:31:24.203Z,17.00
2022-11-18T22:33:55.078Z,17.50
2022-11-18T22:36:29.199Z,17.80
2022-11-18T22:38:59.569Z,18.00
2022-11-18T22:41:50.260Z,18.20
2022-11-18T22:44:21.193Z,18.40
2022-11-18T22:46:51.543Z,18.70
2022-11-18T22:49:21.924Z,18.90
2022-11-18T22:51:52.220Z,19.00
2022-11-18T22:54:39.235Z,19.10
2022-11-18T22:57:10.508Z,19.10
2022-11-18T22:59:40.718Z,19.10
2022-11-18T23:02:10.984Z,19.20
2022-11-18T23:04:41.251Z,19.20
2022-11-18T23:07:11.925Z,19.30
2022-11-18T23:09:42.205Z,19.40
2022-11-18T23:12:30.658Z,19.40
2022-11-18T23:15:00.954Z,19.40
2022-11-18T23:17:31.234Z,19.60
2022-11-18T23:20:01.502Z,19.60
2022-11-18T23:22:31.723Z,19.60
2022-11-18T23:25:01.973Z,19.70
2022-11-18T23:27:32.229Z,19.70
2022-11-18T23:30:02.404Z,19.70
2022-11-18T23:32:32.576Z,19.60
2022-11-18T23:35:02.795Z,19.60
2022-11-18T23:37:32.998Z,19.60
2022-11-18T23:40:03.267Z,19.70
2022-11-18T23:42:33.541Z,19.90
2022-11-18T23:45:05.474Z,20.20
2022-11-18T23:47:35.876Z,20.40
2022-11-18T23:50:13.676Z,20.50
2022-11-18T23:52:44.816Z,20.50
2022-11-18T23:55:15.061Z,20.50
2022-11-18T23:57:46.092Z,20.50
